createdAt,value
2018-05-23T00:00:16.142Z,6.70
2018-05-23T00:01:16.130Z,6.90
2018-05-23T00:02:16.120Z,7.20
2018-05-23T00:03:16.102Z,7.20
2018-05-23T00:04:16.098Z,7.90
2018-05-23T00:05:16.077Z,6.60
2018-05-23T00:06:16.064Z,9.20
2018-05-23T00:07:16.050Z,6.90
2018-05-23T00:08:16.037Z,7.60
2018-05-23T00:09:16.031Z,7.50
2018-05-23T00:10:16.012Z,8.10
2018-05-23T00:11:15.995Z,7.10
2018-05-23T00:12:15.986Z,7.50
2018-05-23T00:13:15.972Z,9.60
2018-05-23T00:14:15.960Z,9.30
2018-05-23T00:15:15.944Z,7.00
2018-05-23T00:16:15.932Z,7.10
2018-05-23T00:17:15.920Z,8.40
2018-05-23T00:18:15.908Z,6.70
2018-05-23T00:19:15.892Z,7.40
2018-05-23T00:20:15.881Z,7.30
2018-05-23T00:21:15.867Z,9.20
2018-05-23T00:22:15.854Z,7.50
2018-05-23T00:23:15.842Z,7.50
2018-05-23T00:24:15.833Z,9.10
2018-05-23T00:25:15.816Z,13.80
2018-05-23T00:26:15.806Z,7.60
2018-05-23T00:27:15.787Z,8.20
2018-05-23T00:28:15.787Z,10.00
2018-05-23T00:29:15.768Z,7.90
2018-05-23T00:30:15.753Z,9.00
2018-05-23T00:31:15.744Z,9.50
2018-05-23T00:32:15.724Z,7.70
2018-05-23T00:33:15.710Z,9.40
2018-05-23T00:34:15.749Z,8.20
2018-05-23T00:35:15.684Z,10.10
2018-05-23T00:36:15.688Z,9.40
2018-05-23T00:37:15.658Z,8.80
2018-05-23T00:38:15.646Z,7.40
2018-05-23T00:39:15.631Z,7.00
2018-05-23T00:40:15.619Z,8.20
2018-05-23T00:41:15.606Z,8.10
2018-05-23T00:42:15.594Z,8.50
2018-05-23T00:43:15.578Z,7.50
2018-05-23T00:44:15.566Z,9.30
2018-05-23T00:45:15.553Z,7.80
2018-05-23T00:46:15.557Z,9.00
2018-05-23T00:47:15.532Z,9.50
2018-05-23T00:48:15.515Z,8.60
2018-05-23T00:49:15.502Z,11.20
2018-05-23T00:50:15.595Z,10.00
2018-05-23T00:51:15.483Z,8.50
2018-05-23T00:52:15.464Z,7.60
2018-05-23T00:53:15.449Z,9.60
2018-05-23T00:54:15.440Z,9.20
2018-05-23T00:55:15.424Z,7.50
2018-05-23T00:56:15.414Z,8.80
2018-05-23T00:57:15.397Z,7.20
2018-05-23T00:58:15.386Z,7.80
2018-05-23T00:59:15.373Z,9.50
2018-05-23T01:00:15.357Z,8.80
2018-05-23T01:01:15.343Z,9.00
2018-05-23T01:02:15.333Z,9.20
2018-05-23T01:03:15.320Z,8.20
2018-05-23T01:04:15.308Z,11.00
2018-05-23T01:05:15.292Z,8.80
2018-05-23T01:06:15.335Z,8.10
2018-05-23T01:07:15.263Z,9.20
2018-05-23T01:08:15.271Z,11.50
2018-05-23T01:09:15.247Z,8.50
2018-05-23T01:10:15.227Z,9.40
2018-05-23T01:11:15.211Z,8.60
2018-05-23T01:12:15.208Z,9.80
2018-05-23T01:13:15.186Z,7.70
2018-05-23T01:14:15.175Z,9.20
2018-05-23T01:15:15.161Z,8.30
2018-05-23T01:16:15.151Z,8.30
2018-05-23T01:17:15.132Z,10.60
2018-05-23T01:18:15.119Z,9.20
2018-05-23T01:19:15.106Z,8.90
2018-05-23T01:20:15.093Z,9.10
2018-05-23T01:21:15.081Z,10.50
2018-05-23T01:22:15.068Z,11.10
2018-05-23T01:23:15.052Z,8.10
2018-05-23T01:24:15.042Z,9.30
2018-05-23T01:25:15.029Z,8.80
2018-05-23T01:26:15.016Z,8.80
2018-05-23T01:27:15.000Z,9.00
2018-05-23T01:28:14.993Z,9.50
2018-05-23T01:29:14.976Z,9.90
2018-05-23T01:30:14.962Z,8.20
2018-05-23T01:31:14.948Z,9.50
2018-05-23T01:32:14.933Z,10.50
2018-05-23T01:33:14.921Z,9.90
2018-05-23T01:34:14.907Z,8.30
2018-05-23T01:35:14.893Z,13.30
2018-05-23T01:36:14.881Z,9.40
2018-05-23T01:37:14.868Z,7.70
2018-05-23T01:38:14.856Z,9.90
2018-05-23T01:39:14.849Z,11.00
2018-05-23T01:40:14.832Z,8.80
2018-05-23T01:41:14.814Z,10.40
2018-05-23T01:42:14.802Z,10.40
2018-05-23T01:43:14.786Z,8.80
2018-05-23T01:44:14.774Z,10.70
2018-05-23T01:45:14.764Z,10.20
2018-05-23T01:46:14.893Z,9.30
2018-05-23T01:47:14.747Z,10.60
2018-05-23T01:48:14.720Z,8.90
2018-05-23T01:49:14.760Z,8.20
2018-05-23T01:50:14.695Z,9.00
2018-05-23T01:51:14.681Z,9.20
2018-05-23T01:52:14.672Z,10.40
2018-05-23T01:53:14.655Z,9.00
2018-05-23T01:54:14.644Z,11.00
2018-05-23T01:55:14.629Z,8.90
2018-05-23T01:56:14.615Z,8.30
2018-05-23T01:57:14.602Z,8.90
2018-05-23T01:58:14.598Z,10.60
2018-05-23T01:59:14.576Z,8.70
2018-05-23T02:00:14.566Z,10.00
2018-05-23T02:01:14.550Z,12.00
2018-05-23T02:02:14.538Z,12.60
2018-05-23T02:03:14.522Z,9.70
2018-05-23T02:04:14.509Z,9.40
2018-05-23T02:05:14.504Z,8.90
2018-05-23T02:06:14.489Z,10.00
2018-05-23T02:07:14.469Z,9.50
2018-05-23T02:08:14.464Z,10.40
2018-05-23T02:09:14.444Z,9.90
2018-05-23T02:10:14.503Z,10.50
2018-05-23T02:11:14.425Z,9.10
2018-05-23T02:12:14.412Z,9.70
2018-05-23T02:13:14.392Z,9.30
2018-05-23T02:14:14.385Z,10.70
2018-05-23T02:15:14.361Z,12.40
2018-05-23T02:16:14.354Z,10.20
2018-05-23T02:17:14.347Z,10.30
2018-05-23T02:18:14.331Z,11.00
2018-05-23T02:19:14.309Z,11.70
2018-05-23T02:20:14.295Z,11.60
2018-05-23T02:21:14.283Z,13.30
2018-05-23T02:22:14.270Z,10.30
2018-05-23T02:23:14.258Z,11.90
2018-05-23T02:24:14.243Z,13.70
2018-05-23T02:25:14.230Z,12.60
2018-05-23T02:26:14.222Z,10.50
2018-05-23T02:27:14.204Z,10.10
2018-05-23T02:28:14.190Z,9.80
2018-05-23T02:29:14.184Z,10.50
2018-05-23T02:30:14.169Z,9.20
2018-05-23T02:31:14.149Z,12.00
2018-05-23T02:32:14.144Z,9.40
2018-05-23T02:33:14.123Z,11.70
2018-05-23T02:34:14.112Z,12.00
2018-05-23T02:35:14.100Z,12.60
2018-05-23T02:36:14.090Z,10.20
2018-05-23T02:37:14.082Z,9.10
2018-05-23T02:38:14.056Z,12.60
2018-05-23T02:39:14.042Z,13.10
2018-05-23T02:40:14.028Z,13.50
2018-05-23T02:41:14.016Z,13.40
2018-05-23T02:42:14.003Z,10.20
2018-05-23T02:43:13.986Z,13.60
2018-05-23T02:44:13.975Z,12.40
2018-05-23T02:45:13.963Z,10.70
2018-05-23T02:46:13.951Z,10.50
2018-05-23T02:47:14.097Z,11.60
2018-05-23T02:48:13.930Z,10.10
2018-05-23T02:49:13.908Z,11.60
2018-05-23T02:50:13.895Z,11.40
2018-05-23T02:51:13.880Z,10.80
2018-05-23T02:52:13.877Z,14.20
2018-05-23T02:53:13.854Z,15.50
2018-05-23T02:54:13.845Z,9.80
2018-05-23T02:55:13.829Z,12.00
2018-05-23T02:56:13.814Z,11.90
2018-05-23T02:57:13.800Z,13.90
2018-05-23T02:58:13.788Z,12.10
2018-05-23T02:59:13.772Z,12.30
2018-05-23T03:00:13.766Z,13.80
2018-05-23T03:01:13.747Z,11.30
2018-05-23T03:02:13.734Z,12.00
2018-05-23T03:03:13.719Z,12.10
2018-05-23T03:04:13.707Z,13.20
2018-05-23T03:05:13.692Z,11.10
2018-05-23T03:06:13.683Z,11.00
2018-05-23T03:07:13.677Z,12.10
2018-05-23T03:08:13.650Z,14.10
2018-05-23T03:09:13.648Z,13.00
2018-05-23T03:10:13.624Z,12.10
2018-05-23T03:11:13.610Z,13.70
2018-05-23T03:12:13.597Z,11.80
2018-05-23T03:13:13.584Z,13.90
2018-05-23T03:14:13.571Z,13.70
2018-05-23T03:15:13.555Z,14.30
2018-05-23T03:16:13.542Z,14.40
2018-05-23T03:17:13.529Z,13.90
2018-05-23T03:18:13.516Z,11.40
2018-05-23T03:19:13.509Z,11.30
2018-05-23T03:20:13.489Z,13.70
2018-05-23T03:21:13.474Z,14.10
2018-05-23T03:22:13.482Z,13.60
2018-05-23T03:23:13.448Z,13.60
2018-05-23T03:24:13.433Z,14.10
2018-05-23T03:25:13.423Z,14.40
2018-05-23T03:26:13.408Z,13.40
2018-05-23T03:27:13.401Z,12.70
2018-05-23T03:28:13.382Z,14.90
2018-05-23T03:29:13.367Z,13.90
2018-05-23T03:30:13.353Z,13.40
2018-05-23T03:31:13.339Z,15.00
2018-05-23T03:32:13.330Z,12.60
2018-05-23T03:33:13.319Z,16.20
2018-05-23T03:34:13.300Z,13.10
2018-05-23T03:35:13.284Z,14.80
2018-05-23T03:36:13.272Z,14.50
2018-05-23T03:37:13.257Z,15.10
2018-05-23T03:38:13.244Z,16.00
2018-05-23T03:39:13.230Z,13.90
2018-05-23T03:40:13.219Z,13.00
2018-05-23T03:41:13.205Z,14.40
2018-05-23T03:42:13.200Z,13.90
2018-05-23T03:43:13.184Z,15.40
2018-05-23T03:44:13.170Z,13.60
2018-05-23T03:45:13.149Z,15.50
2018-05-23T03:46:13.135Z,15.60
2018-05-23T03:47:13.122Z,14.80
2018-05-23T03:48:13.111Z,14.40
2018-05-23T03:49:13.095Z,14.80
2018-05-23T03:50:13.081Z,16.00
2018-05-23T03:51:13.067Z,15.20
2018-05-23T03:52:13.055Z,14.10
2018-05-23T03:53:13.047Z,12.40
2018-05-23T03:54:13.027Z,13.20
2018-05-23T03:55:13.084Z,14.70
2018-05-23T03:56:12.999Z,16.50
2018-05-23T03:57:13.087Z,16.70
2018-05-23T03:58:12.973Z,12.20
2018-05-23T03:59:12.966Z,16.80
2018-05-23T04:00:12.945Z,15.70
2018-05-23T04:01:12.931Z,16.50
2018-05-23T04:02:12.917Z,17.20
2018-05-23T04:03:12.905Z,14.20
2018-05-23T04:04:12.913Z,13.50
2018-05-23T04:05:12.878Z,16.10
2018-05-23T04:06:12.863Z,19.60
2018-05-23T04:07:12.851Z,14.80
2018-05-23T04:08:12.836Z,13.90
2018-05-23T04:09:12.823Z,13.80
2018-05-23T04:10:12.820Z,13.90
2018-05-23T04:11:12.802Z,13.10
2018-05-23T04:12:12.780Z,15.10
2018-05-23T04:13:12.777Z,14.60
2018-05-23T04:14:12.755Z,14.30
2018-05-23T04:15:12.739Z,14.10
2018-05-23T04:16:12.733Z,13.90
2018-05-23T04:17:12.721Z,14.10
2018-05-23T04:18:12.700Z,18.00
2018-05-23T04:19:12.691Z,13.50
2018-05-23T04:20:12.681Z,19.20
2018-05-23T04:21:12.663Z,12.90
2018-05-23T04:22:12.648Z,15.30
2018-05-23T04:23:12.635Z,16.80
2018-05-23T04:24:12.620Z,13.10
2018-05-23T04:25:12.604Z,16.40
2018-05-23T04:26:12.591Z,14.70
2018-05-23T04:27:12.580Z,19.50
2018-05-23T04:28:12.566Z,16.30
2018-05-23T04:29:12.561Z,17.90
2018-05-23T04:30:12.539Z,14.30
2018-05-23T04:31:12.532Z,16.30
2018-05-23T04:32:12.509Z,17.90
2018-05-23T04:33:12.501Z,15.80
2018-05-23T04:34:12.534Z,17.20
2018-05-23T04:35:12.473Z,18.00
2018-05-23T04:36:12.456Z,14.10
2018-05-23T04:37:12.450Z,16.70
2018-05-23T04:38:12.435Z,15.70
2018-05-23T04:39:12.446Z,17.60
2018-05-23T04:40:12.407Z,14.20
2018-05-23T04:41:12.400Z,16.60
2018-05-23T04:42:12.378Z,16.00
2018-05-23T04:43:12.371Z,15.30
2018-05-23T04:44:12.358Z,14.90
2018-05-23T04:45:12.337Z,15.30
2018-05-23T04:46:12.322Z,17.00
2018-05-23T04:47:12.309Z,14.30
2018-05-23T04:48:12.299Z,17.60
2018-05-23T04:49:12.284Z,15.00
2018-05-23T04:50:12.421Z,17.20
2018-05-23T04:51:12.261Z,14.60
2018-05-23T04:52:12.247Z,15.70
2018-05-23T04:53:12.229Z,16.10
2018-05-23T04:54:12.215Z,14.60
2018-05-23T04:55:12.201Z,15.10
2018-05-23T04:56:12.196Z,17.20
2018-05-23T04:57:12.177Z,16.30
2018-05-23T04:58:12.164Z,14.10
2018-05-23T04:59:12.151Z,16.90
2018-05-23T05:00:12.136Z,16.60
2018-05-23T05:01:12.123Z,18.30
2018-05-23T05:02:12.110Z,14.70
2018-05-23T05:03:12.104Z,16.90
2018-05-23T05:04:12.083Z,14.90
2018-05-23T05:05:12.079Z,15.20
2018-05-23T05:06:12.160Z,18.50
2018-05-23T05:07:12.044Z,17.50
2018-05-23T05:08:12.030Z,14.50
2018-05-23T05:09:12.017Z,14.10
2018-05-23T05:10:12.004Z,14.90
2018-05-23T05:11:11.990Z,18.50
2018-05-23T05:12:11.977Z,16.20
2018-05-23T05:13:11.972Z,17.20
2018-05-23T05:14:11.952Z,14.40
2018-05-23T05:15:11.939Z,15.50
2018-05-23T05:16:11.926Z,17.00
2018-05-23T05:17:11.913Z,15.90
2018-05-23T05:18:11.900Z,15.10
2018-05-23T05:19:11.886Z,17.60
2018-05-23T05:20:11.872Z,15.90
2018-05-23T05:21:11.859Z,18.30
2018-05-23T05:22:11.846Z,16.40
2018-05-23T05:23:11.839Z,17.20
2018-05-23T05:24:11.822Z,17.00
2018-05-23T05:25:11.806Z,21.30
2018-05-23T05:26:11.793Z,15.70
2018-05-23T05:27:11.781Z,16.70
2018-05-23T05:28:11.772Z,20.00
2018-05-23T05:29:11.757Z,16.70
2018-05-23T05:30:11.744Z,17.10
2018-05-23T05:31:11.730Z,17.70
2018-05-23T05:32:11.723Z,17.20
2018-05-23T05:33:11.706Z,16.70
2018-05-23T05:34:11.698Z,16.80
2018-05-23T05:35:11.687Z,16.70
2018-05-23T05:36:11.676Z,19.80
2018-05-23T05:37:11.653Z,22.20
2018-05-23T05:38:11.639Z,17.80
2018-05-23T05:39:11.643Z,18.20
2018-05-23T05:40:11.692Z,15.70
2018-05-23T05:41:11.602Z,13.60
2018-05-23T05:42:11.594Z,15.80
2018-05-23T05:43:11.579Z,15.60
2018-05-23T05:44:11.564Z,17.80
2018-05-23T05:45:11.552Z,14.90
2018-05-23T05:46:11.539Z,13.80
2018-05-23T05:47:11.525Z,17.80
2018-05-23T05:48:11.512Z,18.10
2018-05-23T05:49:11.501Z,14.40
2018-05-23T05:50:11.499Z,14.00
2018-05-23T05:51:11.474Z,15.50
2018-05-23T05:52:11.463Z,16.50
2018-05-23T05:53:11.450Z,15.20
2018-05-23T05:54:11.438Z,16.10
2018-05-23T05:55:11.426Z,15.70
2018-05-23T05:56:11.417Z,16.40
2018-05-23T05:57:11.405Z,19.00
2018-05-23T05:58:11.387Z,18.60
2018-05-23T05:59:11.376Z,16.50
2018-05-23T06:00:11.372Z,15.60
2018-05-23T06:01:11.355Z,19.90
2018-05-23T06:02:11.340Z,18.70
2018-05-23T06:03:11.329Z,16.30
2018-05-23T06:04:11.324Z,20.40
2018-05-23T06:05:11.304Z,16.40
2018-05-23T06:06:11.291Z,17.20
2018-05-23T06:07:11.285Z,15.40
2018-05-23T06:08:11.270Z,18.10
2018-05-23T06:09:11.315Z,15.20
2018-05-23T06:10:11.242Z,17.10
2018-05-23T06:11:11.231Z,15.80
2018-05-23T06:12:11.218Z,18.40
2018-05-23T06:13:11.221Z,18.30
2018-05-23T06:14:11.193Z,15.90
2018-05-23T06:15:11.188Z,20.50
2018-05-23T06:16:11.170Z,16.40
2018-05-23T06:17:11.157Z,17.00
2018-05-23T06:18:11.150Z,15.60
2018-05-23T06:19:11.132Z,14.60
2018-05-23T06:20:11.121Z,18.10
2018-05-23T06:21:11.110Z,17.90
2018-05-23T06:22:11.099Z,15.00
2018-05-23T06:23:11.097Z,18.20
2018-05-23T06:24:11.079Z,15.00
2018-05-23T06:25:11.089Z,16.50
2018-05-23T06:26:11.058Z,17.80
2018-05-23T06:27:11.038Z,17.00
2018-05-23T06:28:11.035Z,15.20
2018-05-23T06:29:11.016Z,15.80
2018-05-23T06:30:11.158Z,16.70
2018-05-23T06:31:10.994Z,12.60
2018-05-23T06:32:10.991Z,22.00
2018-05-23T06:33:10.973Z,17.50
2018-05-23T06:34:10.966Z,15.80
2018-05-23T06:35:10.958Z,14.40
2018-05-23T06:36:10.937Z,17.00
2018-05-23T06:37:10.926Z,13.80
2018-05-23T06:38:10.918Z,14.50
2018-05-23T06:39:10.902Z,17.70
2018-05-23T06:40:10.892Z,14.80
2018-05-23T06:41:10.881Z,19.60
2018-05-23T06:42:10.876Z,16.60
2018-05-23T06:43:10.859Z,16.90
2018-05-23T06:44:10.848Z,18.10
2018-05-23T06:45:10.836Z,18.20
2018-05-23T06:46:10.827Z,15.80
2018-05-23T06:47:10.817Z,15.20
2018-05-23T06:48:10.804Z,14.20
2018-05-23T06:49:10.794Z,15.30
2018-05-23T06:50:10.812Z,12.90
2018-05-23T06:51:10.772Z,15.70
2018-05-23T06:52:10.762Z,17.00
2018-05-23T06:53:10.752Z,12.70
2018-05-23T06:54:10.741Z,13.10
2018-05-23T06:55:10.739Z,15.70
2018-05-23T06:56:10.725Z,16.30
2018-05-23T06:57:10.721Z,14.80
2018-05-23T06:58:10.707Z,16.50
2018-05-23T06:59:10.686Z,12.80
2018-05-23T07:00:10.677Z,19.70
2018-05-23T07:01:10.670Z,11.60
2018-05-23T07:02:10.656Z,17.80
2018-05-23T07:03:10.645Z,14.50
2018-05-23T07:04:10.635Z,13.50
2018-05-23T07:05:10.625Z,15.40
2018-05-23T07:06:10.618Z,27.90
2018-05-23T07:07:10.612Z,21.40
2018-05-23T07:08:10.595Z,12.00
2018-05-23T07:09:10.581Z,15.00
2018-05-23T07:10:10.571Z,18.30
2018-05-23T07:11:10.593Z,18.40
2018-05-23T07:12:10.559Z,18.60
2018-05-23T07:13:10.544Z,17.60
2018-05-23T07:14:10.532Z,14.90
2018-05-23T07:15:10.521Z,13.70
2018-05-23T07:16:10.506Z,14.80
2018-05-23T07:17:10.553Z,12.70
2018-05-23T07:18:10.574Z,18.50
2018-05-23T07:19:10.480Z,13.00
2018-05-23T07:20:10.473Z,12.70
2018-05-23T07:21:10.459Z,14.90
2018-05-23T07:22:10.449Z,14.10
2018-05-23T07:23:10.440Z,18.70
2018-05-23T07:24:10.435Z,12.60
2018-05-23T07:25:10.415Z,14.80
2018-05-23T07:26:10.408Z,15.90
2018-05-23T07:27:10.393Z,13.50
2018-05-23T07:28:10.384Z,13.20
2018-05-23T07:29:10.374Z,13.50
2018-05-23T07:30:10.374Z,13.90
2018-05-23T07:31:10.355Z,13.00
2018-05-23T07:32:10.345Z,11.60
2018-05-23T07:33:10.329Z,14.70
2018-05-23T07:34:10.320Z,14.80
2018-05-23T07:35:10.310Z,17.00
2018-05-23T07:36:10.304Z,13.10
2018-05-23T07:37:10.296Z,12.50
2018-05-23T07:38:10.280Z,15.20
2018-05-23T07:39:10.325Z,16.10
2018-05-23T07:40:10.269Z,12.10
2018-05-23T07:41:10.250Z,11.90
2018-05-23T07:42:10.239Z,17.10
2018-05-23T07:43:10.227Z,14.10
2018-05-23T07:44:10.216Z,12.40
2018-05-23T07:45:10.206Z,13.70
2018-05-23T07:46:10.196Z,14.70
2018-05-23T07:47:10.189Z,13.70
2018-05-23T07:48:10.176Z,12.30
2018-05-23T07:49:10.166Z,10.20
2018-05-23T07:50:10.164Z,13.30
2018-05-23T07:51:10.161Z,11.60
2018-05-23T07:52:10.137Z,14.40
2018-05-23T07:53:10.128Z,12.80
2018-05-23T07:54:10.119Z,12.90
2018-05-23T07:55:10.110Z,12.50
2018-05-23T07:56:10.101Z,15.40
2018-05-23T07:57:10.089Z,13.10
2018-05-23T07:58:10.083Z,11.30
2018-05-23T07:59:10.071Z,10.80
2018-05-23T08:00:10.071Z,15.90
2018-05-23T08:01:10.056Z,11.50
2018-05-23T08:02:10.044Z,13.50
2018-05-23T08:03:10.035Z,12.40
2018-05-23T08:04:10.031Z,11.60
2018-05-23T08:05:10.019Z,14.00
2018-05-23T08:06:10.012Z,11.90
2018-05-23T08:07:10.018Z,10.80
2018-05-23T08:08:09.989Z,10.40
2018-05-23T08:09:09.981Z,11.50
2018-05-23T08:10:09.977Z,12.20
2018-05-23T08:11:09.967Z,13.20
2018-05-23T08:12:09.953Z,11.60
2018-05-23T08:13:09.947Z,10.20
2018-05-23T08:14:09.937Z,13.10
2018-05-23T08:15:09.936Z,13.60
2018-05-23T08:16:09.920Z,13.50
2018-05-23T08:17:09.913Z,10.40
2018-05-23T08:18:09.986Z,11.60
2018-05-23T08:19:09.894Z,11.00
2018-05-23T08:20:09.893Z,11.00
2018-05-23T08:21:09.876Z,10.30
2018-05-23T08:22:09.872Z,10.70
2018-05-23T08:23:09.861Z,14.50
2018-05-23T08:24:09.849Z,13.10
2018-05-23T08:25:09.850Z,10.00
2018-05-23T08:26:09.898Z,9.90
2018-05-23T08:27:09.825Z,13.50
2018-05-23T08:28:09.815Z,11.10
2018-05-23T08:29:09.804Z,10.20
2018-05-23T08:30:09.797Z,12.00
2018-05-23T08:31:09.790Z,17.00
2018-05-23T08:32:09.782Z,11.80
2018-05-23T08:33:09.769Z,17.00
2018-05-23T08:34:09.761Z,12.00
2018-05-23T08:35:09.764Z,11.40
2018-05-23T08:36:09.750Z,9.20
2018-05-23T08:37:09.735Z,12.50
2018-05-23T08:38:09.724Z,13.20
2018-05-23T08:39:09.722Z,13.20
2018-05-23T08:40:09.704Z,13.10
2018-05-23T08:41:09.713Z,11.60
2018-05-23T08:42:09.693Z,11.10
2018-05-23T08:43:09.681Z,9.90
2018-05-23T08:44:09.673Z,9.10
2018-05-23T08:45:09.670Z,9.80
2018-05-23T08:46:09.688Z,13.00
2018-05-23T08:47:09.643Z,12.50
2018-05-23T08:48:09.645Z,15.00
2018-05-23T08:49:09.634Z,14.00
2018-05-23T08:50:09.618Z,13.20
2018-05-23T08:51:09.611Z,10.60
2018-05-23T08:52:09.648Z,13.80
2018-05-23T08:53:09.591Z,10.80
2018-05-23T08:54:09.590Z,12.20
2018-05-23T08:55:09.580Z,14.00
2018-05-23T08:56:09.575Z,9.70
2018-05-23T08:57:09.563Z,13.50
2018-05-23T08:58:09.549Z,11.30
2018-05-23T08:59:09.537Z,13.90
2018-05-23T09:00:09.536Z,12.30
2018-05-23T09:01:09.520Z,10.70
2018-05-23T09:02:09.522Z,14.20
2018-05-23T09:03:09.506Z,9.90
2018-05-23T09:04:09.494Z,11.00
2018-05-23T09:05:09.494Z,11.80
2018-05-23T09:06:09.499Z,10.20
2018-05-23T09:07:09.468Z,10.30
2018-05-23T09:08:09.459Z,10.70
2018-05-23T09:09:09.467Z,8.80
2018-05-23T09:10:09.441Z,9.40
2018-05-23T09:11:09.440Z,12.80
2018-05-23T09:12:09.477Z,9.40
2018-05-23T09:13:09.414Z,9.50
2018-05-23T09:14:09.409Z,7.10
2018-05-23T09:15:09.404Z,8.80
2018-05-23T09:16:09.390Z,8.40
2018-05-23T09:17:09.381Z,9.00
2018-05-23T09:18:09.380Z,10.70
2018-05-23T09:19:09.368Z,11.70
2018-05-23T09:20:09.362Z,10.30
2018-05-23T09:21:09.346Z,11.10
2018-05-23T09:22:09.337Z,10.10
2018-05-23T09:23:09.332Z,8.80
2018-05-23T09:24:09.325Z,12.20
2018-05-23T09:25:09.311Z,8.70
2018-05-23T09:26:09.301Z,9.30
2018-05-23T09:27:09.295Z,9.80
2018-05-23T09:28:09.285Z,8.40
2018-05-23T09:29:09.281Z,8.50
2018-05-23T09:30:09.269Z,9.90
2018-05-23T09:31:09.259Z,13.20
2018-05-23T09:32:09.277Z,7.90
2018-05-23T09:33:09.241Z,9.50
2018-05-23T09:34:09.233Z,8.20
2018-05-23T09:35:09.333Z,11.90
2018-05-23T09:36:09.225Z,9.00
2018-05-23T09:37:09.221Z,9.70
2018-05-23T09:38:09.211Z,9.80
2018-05-23T09:39:09.227Z,12.10
2018-05-23T09:40:09.190Z,11.40
2018-05-23T09:41:09.178Z,7.70
2018-05-23T09:42:09.171Z,11.70
2018-05-23T09:43:09.162Z,10.00
2018-05-23T09:44:09.155Z,15.40
2018-05-23T09:45:09.255Z,10.10
2018-05-23T09:46:09.141Z,9.70
2018-05-23T09:47:09.134Z,8.70
2018-05-23T09:48:09.138Z,7.60
2018-05-23T09:49:09.120Z,9.60
2018-05-23T09:50:09.114Z,6.80
2018-05-23T09:51:09.112Z,10.10
2018-05-23T09:52:09.106Z,11.60
2018-05-23T09:53:09.095Z,9.80
2018-05-23T09:54:09.085Z,8.80
2018-05-23T09:55:09.246Z,10.70
2018-05-23T09:56:09.072Z,8.60
2018-05-23T09:57:09.065Z,9.90
2018-05-23T09:58:09.058Z,9.80
2018-05-23T09:59:09.051Z,10.20
2018-05-23T10:00:09.045Z,12.70
2018-05-23T10:01:09.042Z,13.00
2018-05-23T10:02:09.033Z,10.20
2018-05-23T10:03:09.024Z,8.90
2018-05-23T10:04:09.022Z,13.40
2018-05-23T10:05:09.028Z,11.40
2018-05-23T10:06:09.008Z,10.10
2018-05-23T10:07:08.999Z,9.50
2018-05-23T10:08:08.995Z,10.30
2018-05-23T10:09:08.997Z,9.20
2018-05-23T10:10:08.982Z,10.10
2018-05-23T10:11:09.072Z,9.30
2018-05-23T10:12:09.127Z,7.80
2018-05-23T10:13:08.968Z,10.00
2018-05-23T10:14:08.960Z,9.60
2018-05-23T10:15:08.956Z,7.00
2018-05-23T10:16:08.964Z,9.70
2018-05-23T10:17:08.944Z,5.70
2018-05-23T10:18:08.939Z,11.00
2018-05-23T10:19:08.934Z,9.00
2018-05-23T10:20:08.928Z,9.10
2018-05-23T10:21:08.931Z,9.60
2018-05-23T10:22:08.919Z,9.60
2018-05-23T10:23:08.935Z,6.80
2018-05-23T10:24:08.911Z,8.10
2018-05-23T10:25:08.908Z,10.50
2018-05-23T10:26:08.904Z,8.00
2018-05-23T10:27:08.901Z,5.80
2018-05-23T10:28:08.896Z,8.40
2018-05-23T10:29:08.892Z,10.00
2018-05-23T10:30:08.894Z,11.40
2018-05-23T10:31:08.894Z,8.20
2018-05-23T10:32:08.887Z,9.70
2018-05-23T10:33:08.880Z,10.70
2018-05-23T10:34:08.877Z,7.60
2018-05-23T10:35:08.873Z,11.00
2018-05-23T10:36:08.874Z,9.70
2018-05-23T10:37:08.866Z,13.80
2018-05-23T10:38:08.871Z,10.50
2018-05-23T10:39:08.922Z,9.50
2018-05-23T10:40:08.856Z,7.20
2018-05-23T10:41:08.955Z,9.20
2018-05-23T10:42:08.859Z,8.40
2018-05-23T10:43:08.847Z,10.20
2018-05-23T10:44:08.844Z,9.20
2018-05-23T10:45:08.840Z,10.80
2018-05-23T10:46:08.888Z,10.50
2018-05-23T10:47:08.834Z,9.60
2018-05-23T10:48:08.837Z,9.20
2018-05-23T10:49:08.827Z,10.30
2018-05-23T10:50:08.828Z,9.30
2018-05-23T10:51:08.812Z,10.40
2018-05-23T10:52:08.973Z,7.80
2018-05-23T10:53:08.804Z,12.70
2018-05-23T10:54:08.804Z,8.50
2018-05-23T10:55:08.804Z,9.80
2018-05-23T10:56:08.795Z,9.20
2018-05-23T10:57:08.792Z,6.80
2018-05-23T10:58:08.787Z,11.30
2018-05-23T10:59:08.776Z,12.80
2018-05-23T11:00:08.866Z,10.00
2018-05-23T11:01:08.762Z,6.90
2018-05-23T11:02:08.760Z,9.00
2018-05-23T11:03:08.756Z,8.90
2018-05-23T11:04:08.754Z,8.10
2018-05-23T11:05:08.742Z,8.70
2018-05-23T11:06:08.735Z,10.90
2018-05-23T11:07:08.729Z,7.40
2018-05-23T11:08:08.723Z,8.80
2018-05-23T11:09:08.717Z,9.50
2018-05-23T11:10:08.710Z,7.70
2018-05-23T11:11:08.712Z,10.10
2018-05-23T11:12:08.705Z,12.90
2018-05-23T11:13:08.692Z,8.40
2018-05-23T11:14:08.684Z,7.20
2018-05-23T11:15:08.680Z,10.00
2018-05-23T11:16:08.678Z,9.20
2018-05-23T11:17:08.664Z,9.10
2018-05-23T11:18:08.657Z,10.60
2018-05-23T11:19:08.657Z,13.40
2018-05-23T11:20:08.643Z,11.60
2018-05-23T11:21:08.635Z,9.90
2018-05-23T11:22:08.636Z,9.40
2018-05-23T11:23:08.622Z,10.70
2018-05-23T11:24:08.614Z,11.40
2018-05-23T11:25:08.607Z,13.70
2018-05-23T11:26:08.601Z,9.30
2018-05-23T11:27:08.594Z,7.70
2018-05-23T11:28:08.588Z,10.70
2018-05-23T11:29:08.578Z,8.60
2018-05-23T11:30:08.568Z,7.50
2018-05-23T11:31:08.561Z,12.60
2018-05-23T11:32:08.563Z,9.70
2018-05-23T11:33:08.547Z,10.10
2018-05-23T11:34:08.539Z,13.10
2018-05-23T11:35:08.530Z,11.50
2018-05-23T11:36:08.533Z,10.90
2018-05-23T11:37:08.518Z,10.30
2018-05-23T11:38:08.508Z,13.20
2018-05-23T11:39:08.499Z,12.40
2018-05-23T11:40:08.496Z,10.50
2018-05-23T11:41:08.492Z,11.20
2018-05-23T11:42:08.477Z,11.10
2018-05-23T11:43:08.468Z,10.80
2018-05-23T11:44:08.459Z,12.70
2018-05-23T11:45:08.454Z,9.00
2018-05-23T11:46:08.452Z,12.70
2018-05-23T11:47:08.443Z,9.90
2018-05-23T11:48:08.434Z,10.60
2018-05-23T11:49:08.421Z,9.60
2018-05-23T11:50:08.411Z,9.50
2018-05-23T11:51:08.405Z,9.00
2018-05-23T11:52:08.431Z,15.10
2018-05-23T11:53:08.387Z,11.10
2018-05-23T11:54:08.380Z,9.00
2018-05-23T11:55:08.369Z,9.10
2018-05-23T11:56:08.366Z,14.90
2018-05-23T11:57:08.357Z,15.40
2018-05-23T11:58:08.345Z,14.00
2018-05-23T11:59:08.339Z,12.90
2018-05-23T12:00:08.327Z,12.00
2018-05-23T12:01:08.318Z,9.60
2018-05-23T12:02:08.470Z,9.10
2018-05-23T12:03:08.301Z,9.40
2018-05-23T12:04:08.293Z,11.90
2018-05-23T12:05:08.292Z,10.00
2018-05-23T12:06:08.282Z,12.50
2018-05-23T12:07:08.273Z,6.60
2018-05-23T12:08:08.273Z,10.00
2018-05-23T12:09:08.256Z,10.80
2018-05-23T12:10:08.251Z,10.60
2018-05-23T12:11:08.233Z,12.70
2018-05-23T12:12:08.223Z,15.30
2018-05-23T12:13:08.215Z,9.60
2018-05-23T12:14:08.212Z,9.80
2018-05-23T12:15:08.210Z,8.70
2018-05-23T12:16:08.190Z,10.70
2018-05-23T12:17:08.180Z,9.20
2018-05-23T12:18:08.181Z,8.80
2018-05-23T12:19:08.169Z,13.70
2018-05-23T12:20:08.163Z,10.50
2018-05-23T12:21:08.148Z,12.30
2018-05-23T12:22:08.140Z,9.20
2018-05-23T12:23:08.132Z,14.10
2018-05-23T12:24:08.132Z,16.10
2018-05-23T12:25:08.115Z,12.40
2018-05-23T12:26:08.112Z,9.20
2018-05-23T12:27:08.095Z,12.70
2018-05-23T12:28:08.086Z,8.40
2018-05-23T12:29:08.083Z,12.40
2018-05-23T12:30:08.071Z,9.10
2018-05-23T12:31:08.063Z,9.80
2018-05-23T12:32:08.054Z,9.50
2018-05-23T12:33:08.055Z,13.30
2018-05-23T12:34:08.036Z,13.10
2018-05-23T12:35:08.025Z,12.20
2018-05-23T12:36:08.018Z,9.30
2018-05-23T12:37:08.014Z,9.10
2018-05-23T12:38:08.000Z,10.40
2018-05-23T12:39:07.995Z,14.70
2018-05-23T12:40:07.994Z,9.80
2018-05-23T12:41:07.975Z,7.90
2018-05-23T12:42:07.971Z,10.00
2018-05-23T12:43:07.965Z,8.20
2018-05-23T12:44:07.954Z,10.50
2018-05-23T12:45:07.940Z,9.40
2018-05-23T12:46:07.930Z,10.90
2018-05-23T12:47:07.921Z,11.30
2018-05-23T12:48:07.914Z,9.20
2018-05-23T12:49:07.905Z,10.50
2018-05-23T12:50:07.898Z,10.40
2018-05-23T12:51:07.884Z,10.50
2018-05-23T12:52:07.880Z,10.10
2018-05-23T12:53:07.872Z,11.30
2018-05-23T12:54:07.861Z,9.30
2018-05-23T12:55:07.862Z,8.50
2018-05-23T12:56:07.843Z,8.80
2018-05-23T12:57:07.829Z,11.50
2018-05-23T12:58:07.879Z,10.60
2018-05-23T12:59:07.813Z,9.50
2018-05-23T13:00:07.802Z,9.10